createdAt,value
2022-10-31T00:01:32.281Z,7.00
2022-10-31T00:03:58.941Z,6.88
2022-10-31T00:06:26.096Z,5.45
2022-10-31T00:08:55.278Z,6.22
2022-10-31T00:11:22.138Z,5.60
2022-10-31T00:13:48.828Z,7.07
2022-10-31T00:16:17.671Z,7.05
2022-10-31T00:18:44.668Z,6.72
2022-10-31T00:21:11.292Z,7.93
2022-10-31T00:23:37.899Z,7.90
2022-10-31T00:26:06.372Z,8.10
2022-10-31T00:28:33.231Z,9.60
2022-10-31T00:31:05.271Z,8.45
2022-10-31T00:33:35.658Z,8.60
2022-10-31T00:36:05.579Z,8.05
2022-10-31T00:38:32.408Z,8.00
2022-10-31T00:40:58.934Z,8.15
2022-10-31T00:43:28.012Z,8.00
2022-10-31T00:45:54.522Z,6.30
2022-10-31T00:48:25.520Z,6.53
2022-10-31T00:50:52.044Z,6.13
2022-10-31T00:53:18.628Z,7.07
2022-10-31T00:55:45.177Z,8.07
2022-10-31T00:58:11.722Z,6.93
2022-10-31T01:00:38.354Z,7.22
2022-10-31T01:03:04.902Z,7.50
2022-10-31T01:05:36.158Z,6.80
2022-10-31T01:08:02.662Z,7.57
2022-10-31T01:10:29.204Z,7.60
2022-10-31T01:12:55.726Z,7.00
2022-10-31T01:15:23.506Z,7.40
2022-10-31T01:17:50.893Z,8.10
2022-10-31T01:20:18.206Z,8.00
2022-10-31T01:22:44.852Z,7.70
2022-10-31T01:25:11.793Z,6.50
2022-10-31T01:27:38.351Z,5.68
2022-10-31T01:30:06.318Z,5.07
2022-10-31T01:32:33.286Z,5.45
2022-10-31T01:34:59.880Z,4.68
2022-10-31T01:37:26.475Z,4.82
2022-10-31T01:39:53.038Z,4.60
2022-10-31T01:42:22.607Z,4.75
2022-10-31T01:44:56.129Z,5.10
2022-10-31T01:47:33.480Z,5.25
2022-10-31T01:50:03.563Z,5.55
2022-10-31T01:52:39.802Z,6.55
2022-10-31T01:55:12.836Z,6.47
2022-10-31T01:57:42.568Z,6.68
2022-10-31T02:00:10.706Z,6.43
2022-10-31T02:02:37.606Z,6.45
2022-10-31T02:05:11.457Z,6.85
2022-10-31T02:10:07.809Z,6.43
2022-10-31T02:12:37.113Z,6.78
2022-10-31T02:15:04.834Z,6.47
2022-10-31T02:17:32.742Z,6.93
2022-10-31T02:20:35.828Z,7.65
2022-10-31T02:23:27.165Z,8.73
2022-10-31T02:26:11.690Z,7.78
2022-10-31T02:28:58.563Z,7.85
2022-10-31T02:31:33.788Z,8.30
2022-10-31T02:34:09.975Z,7.45
2022-10-31T02:36:48.179Z,7.05
2022-10-31T02:39:30.131Z,6.20
2022-10-31T02:42:14.892Z,6.65
2022-10-31T02:44:51.114Z,6.78
2022-10-31T02:47:28.580Z,7.20
2022-10-31T02:50:00.683Z,6.68
2022-10-31T02:52:27.137Z,6.78
2022-10-31T02:54:54.079Z,6.47
2022-10-31T02:57:28.152Z,6.30
2022-10-31T02:59:59.503Z,6.75
2022-10-31T03:02:29.143Z,6.75
2022-10-31T03:05:10.369Z,7.70
2022-10-31T03:07:46.098Z,6.22
2022-10-31T03:10:32.813Z,6.40
2022-10-31T03:13:05.700Z,6.30
2022-10-31T03:15:36.507Z,6.43
2022-10-31T03:18:10.466Z,6.15
2022-10-31T03:20:53.412Z,9.60
2022-10-31T03:23:25.525Z,11.98
2022-10-31T03:25:55.028Z,11.93
2022-10-31T03:28:28.098Z,9.77
2022-10-31T03:30:55.814Z,9.40
2022-10-31T03:33:29.341Z,9.40
2022-10-31T03:35:58.373Z,9.45
2022-10-31T03:38:24.921Z,10.07
2022-10-31T03:40:54.794Z,9.40
2022-10-31T03:43:29.964Z,9.35
2022-10-31T03:45:57.394Z,9.50
2022-10-31T03:48:24.660Z,8.25
2022-10-31T03:50:56.778Z,7.05
2022-10-31T03:53:33.167Z,7.53
2022-10-31T03:56:02.348Z,8.52
2022-10-31T03:58:38.248Z,8.20
2022-10-31T04:01:14.814Z,8.23
2022-10-31T04:03:43.282Z,7.78
2022-10-31T04:06:13.176Z,7.82
2022-10-31T04:08:45.280Z,7.63
2022-10-31T04:11:14.881Z,7.68
2022-10-31T04:13:45.064Z,7.68
2022-10-31T04:16:16.900Z,7.63
2022-10-31T04:18:44.129Z,7.25
2022-10-31T04:21:10.633Z,6.40
2022-10-31T04:23:37.411Z,5.65
2022-10-31T04:26:04.554Z,4.70
2022-10-31T04:28:31.127Z,5.68
2022-10-31T04:30:57.676Z,4.70
2022-10-31T04:33:24.198Z,4.68
2022-10-31T04:35:50.747Z,5.03
2022-10-31T04:38:17.287Z,4.60
2022-10-31T04:40:43.910Z,4.88
2022-10-31T04:43:10.481Z,4.95
2022-10-31T04:45:38.249Z,4.55
2022-10-31T04:48:05.065Z,4.93
2022-10-31T04:50:31.587Z,5.03
2022-10-31T04:52:58.259Z,5.32
2022-10-31T04:55:24.797Z,5.18
2022-10-31T04:57:51.922Z,5.32
2022-10-31T05:00:23.193Z,6.03
2022-10-31T05:02:51.625Z,6.35
2022-10-31T05:05:21.177Z,7.00
2022-10-31T05:07:49.215Z,6.97
2022-10-31T05:10:19.422Z,6.63
2022-10-31T05:12:50.464Z,7.18
2022-10-31T05:15:18.720Z,7.15
2022-10-31T05:17:45.868Z,6.80
2022-10-31T05:20:16.893Z,6.53
2022-10-31T05:22:48.388Z,7.47
2022-10-31T05:25:15.684Z,6.93
2022-10-31T05:27:50.045Z,6.78
2022-10-31T05:30:25.417Z,7.45
2022-10-31T05:32:52.388Z,7.10
2022-10-31T05:35:23.212Z,7.20
2022-10-31T05:37:50.152Z,8.38
2022-10-31T05:40:18.705Z,7.35
2022-10-31T05:42:45.783Z,8.02
2022-10-31T05:45:15.801Z,8.23
2022-10-31T05:47:43.030Z,8.23
2022-10-31T05:50:10.936Z,9.07
2022-10-31T05:52:37.644Z,8.75
2022-10-31T05:55:04.680Z,9.00
2022-10-31T05:57:33.190Z,9.73
2022-10-31T05:59:59.782Z,8.93
2022-10-31T06:02:27.736Z,8.75
2022-10-31T06:04:54.377Z,9.65
2022-10-31T06:07:20.985Z,10.02
2022-10-31T06:09:47.576Z,10.18
2022-10-31T06:12:14.075Z,9.68
2022-10-31T06:14:40.595Z,9.75
2022-10-31T06:17:07.167Z,10.38
2022-10-31T06:19:36.057Z,10.07
2022-10-31T06:22:03.284Z,10.45
2022-10-31T06:24:29.787Z,9.38
2022-10-31T06:26:56.309Z,8.43
2022-10-31T06:29:23.187Z,9.65
2022-10-31T06:31:52.622Z,11.52
2022-10-31T06:34:19.143Z,14.77
2022-10-31T06:36:47.758Z,10.15
2022-10-31T06:39:15.001Z,10.65
2022-10-31T06:41:42.522Z,11.32
2022-10-31T06:44:09.184Z,12.60
2022-10-31T06:46:35.712Z,12.75
2022-10-31T06:49:02.233Z,12.65
2022-10-31T06:51:28.772Z,12.98
2022-10-31T06:53:55.347Z,12.65
2022-10-31T06:56:21.902Z,11.77
2022-10-31T06:58:50.805Z,13.50
2022-10-31T07:01:17.444Z,11.85
2022-10-31T07:03:44.082Z,12.25
2022-10-31T07:06:10.608Z,10.95
2022-10-31T07:08:37.241Z,11.02
2022-10-31T07:11:03.810Z,10.98
2022-10-31T07:13:30.412Z,10.88
2022-10-31T07:16:02.287Z,17.90
2022-10-31T07:18:29.160Z,17.73
2022-10-31T07:20:55.776Z,13.65
2022-10-31T07:23:23.537Z,10.68
2022-10-31T07:25:55.519Z,9.82
2022-10-31T07:28:24.570Z,7.88
2022-10-31T07:30:55.845Z,7.28
2022-10-31T07:33:23.295Z,5.05
2022-10-31T07:35:50.183Z,4.70
2022-10-31T07:38:16.862Z,4.57
2022-10-31T07:40:43.677Z,3.90
2022-10-31T07:43:14.666Z,5.18
2022-10-31T07:45:41.775Z,4.20
2022-10-31T07:48:10.785Z,4.85
2022-10-31T07:50:37.376Z,4.97
2022-10-31T07:53:04.231Z,5.95
2022-10-31T07:55:31.439Z,5.45
2022-10-31T07:57:59.597Z,4.95
2022-10-31T08:00:27.439Z,3.70
2022-10-31T08:03:01.956Z,3.65
2022-10-31T08:05:29.895Z,4.43
2022-10-31T08:07:57.167Z,4.80
2022-10-31T08:10:24.933Z,4.38
2022-10-31T08:12:59.188Z,3.47
2022-10-31T08:15:26.434Z,4.00
2022-10-31T08:17:52.959Z,3.55
2022-10-31T08:20:20.193Z,3.60
2022-10-31T08:22:57.441Z,4.00
2022-10-31T08:25:27.196Z,3.80
2022-10-31T08:27:55.447Z,4.10
2022-10-31T08:30:24.068Z,3.72
2022-10-31T08:33:08.401Z,4.00
2022-10-31T08:35:35.033Z,5.00
2022-10-31T08:38:02.941Z,5.85
2022-10-31T08:40:31.883Z,5.75
2022-10-31T08:43:07.117Z,4.50
2022-10-31T08:45:34.897Z,4.03
2022-10-31T08:48:04.541Z,4.68
2022-10-31T08:50:36.153Z,4.57
2022-10-31T08:53:05.961Z,4.10
2022-10-31T08:55:35.677Z,3.72
2022-10-31T08:58:06.108Z,3.33
2022-10-31T09:00:34.043Z,4.60
2022-10-31T09:03:06.199Z,3.65
2022-10-31T09:05:33.625Z,4.35
2022-10-31T09:08:02.413Z,3.58
2022-10-31T09:10:30.038Z,4.13
2022-10-31T09:13:18.637Z,4.03
2022-10-31T09:15:47.042Z,4.50
2022-10-31T09:18:15.950Z,4.45
2022-10-31T09:20:44.029Z,9.15
2022-10-31T09:23:16.858Z,6.13
2022-10-31T09:25:50.013Z,4.75
2022-10-31T09:28:19.250Z,4.18
2022-10-31T09:30:48.821Z,4.72
2022-10-31T09:33:15.662Z,4.85
2022-10-31T09:35:42.743Z,4.70
2022-10-31T09:38:20.024Z,4.60
2022-10-31T09:41:11.393Z,5.00
2022-10-31T09:43:49.435Z,5.13
2022-10-31T09:46:22.076Z,4.60
2022-10-31T09:49:06.965Z,5.15
2022-10-31T09:51:35.575Z,5.63
2022-10-31T09:54:13.473Z,5.43
2022-10-31T09:56:44.480Z,5.85
2022-10-31T09:59:40.013Z,5.78
2022-10-31T10:02:35.770Z,6.15
2022-10-31T10:05:05.763Z,6.20
2022-10-31T10:08:01.871Z,7.78
2022-10-31T10:10:52.603Z,7.82
2022-10-31T10:13:19.205Z,7.78
2022-10-31T10:15:54.722Z,7.68
2022-10-31T10:18:31.921Z,7.65
2022-10-31T10:21:27.792Z,7.70
2022-10-31T10:24:16.245Z,8.45
2022-10-31T10:26:51.657Z,7.88
2022-10-31T10:29:46.595Z,7.45
2022-10-31T10:32:23.311Z,6.53
2022-10-31T10:34:59.800Z,6.80
2022-10-31T10:37:39.359Z,6.95
2022-10-31T10:40:22.414Z,6.57
2022-10-31T10:43:23.623Z,6.55
2022-10-31T10:46:34.976Z,6.45
2022-10-31T10:49:20.493Z,6.57
2022-10-31T10:52:35.234Z,6.15
2022-10-31T10:55:38.288Z,6.50
2022-10-31T10:58:09.315Z,6.22
2022-10-31T11:00:44.022Z,5.80
2022-10-31T11:03:14.566Z,5.85
2022-10-31T11:05:53.133Z,5.60
2022-10-31T11:08:27.686Z,5.43
2022-10-31T11:11:05.465Z,5.97
2022-10-31T11:13:33.784Z,7.10
2022-10-31T11:16:08.690Z,6.65
2022-10-31T11:18:40.245Z,6.40
2022-10-31T11:21:07.157Z,6.07
2022-10-31T11:23:34.446Z,5.95
2022-10-31T11:26:06.128Z,5.85
2022-10-31T11:28:38.003Z,6.63
2022-10-31T11:31:14.858Z,6.07
2022-10-31T11:33:48.928Z,5.60
2022-10-31T11:36:24.847Z,5.28
2022-10-31T11:38:52.913Z,5.50
2022-10-31T11:41:39.503Z,5.90
2022-10-31T11:44:14.344Z,5.63
2022-10-31T11:46:53.369Z,5.40
2022-10-31T11:49:43.320Z,5.35
2022-10-31T11:52:44.659Z,5.30
2022-10-31T11:55:11.234Z,5.65
2022-10-31T11:57:46.787Z,5.53
2022-10-31T12:00:22.621Z,4.90
2022-10-31T12:02:49.786Z,4.78
2022-10-31T12:05:23.447Z,4.88
2022-10-31T12:10:20.902Z,4.78
2022-10-31T12:13:18.188Z,5.07
2022-10-31T12:15:55.217Z,4.47
2022-10-31T12:18:43.534Z,4.93
2022-10-31T12:21:21.487Z,4.82
2022-10-31T12:23:56.897Z,5.07
2022-10-31T12:26:58.370Z,5.03
2022-10-31T12:29:27.754Z,4.30
2022-10-31T12:32:09.462Z,4.93
2022-10-31T12:35:01.228Z,4.43
2022-10-31T12:37:49.508Z,4.97
2022-10-31T12:40:21.996Z,4.93
2022-10-31T12:43:03.921Z,4.63
2022-10-31T12:45:52.637Z,4.45
2022-10-31T12:48:43.984Z,4.97
2022-10-31T12:51:30.931Z,4.57
2022-10-31T12:54:25.310Z,4.80
2022-10-31T12:57:03.911Z,4.63
2022-10-31T12:59:37.163Z,4.07
2022-10-31T13:02:24.230Z,4.72
2022-10-31T13:04:56.613Z,4.55
2022-10-31T13:07:41.478Z,4.68
2022-10-31T13:10:32.610Z,4.60
2022-10-31T13:13:11.845Z,4.53
2022-10-31T13:15:58.902Z,4.88
2022-10-31T13:18:41.408Z,4.40
2022-10-31T13:21:20.147Z,4.65
2022-10-31T13:23:52.021Z,5.00
2022-10-31T13:26:37.942Z,5.07
2022-10-31T13:29:32.678Z,4.93
2022-10-31T13:32:01.891Z,5.00
2022-10-31T13:34:34.312Z,4.55
2022-10-31T13:37:22.292Z,5.00
2022-10-31T13:40:19.687Z,5.07
2022-10-31T13:42:56.419Z,5.13
2022-10-31T13:45:25.082Z,5.35
2022-10-31T13:48:17.262Z,5.47
2022-10-31T13:50:56.479Z,5.43
2022-10-31T13:53:36.945Z,5.95
2022-10-31T13:56:09.508Z,6.95
2022-10-31T13:58:38.762Z,6.63
2022-10-31T14:01:11.569Z,6.20
2022-10-31T14:06:44.134Z,8.35
2022-10-31T14:09:33.075Z,8.40
2022-10-31T14:12:05.004Z,7.80
2022-10-31T14:14:36.300Z,7.38
2022-10-31T14:17:03.388Z,7.43
2022-10-31T14:19:30.000Z,7.30
2022-10-31T14:21:56.610Z,7.60
2022-10-31T14:24:26.210Z,6.45
2022-10-31T14:26:57.353Z,5.82
2022-10-31T14:29:27.099Z,5.97
2022-10-31T14:31:56.499Z,6.88
2022-10-31T14:34:36.614Z,6.60
2022-10-31T14:37:15.551Z,6.63
2022-10-31T14:40:06.737Z,7.22
2022-10-31T14:42:56.296Z,7.75
2022-10-31T14:45:47.617Z,8.20
2022-10-31T14:48:38.359Z,8.23
2022-10-31T14:51:16.057Z,7.80
2022-10-31T14:53:55.947Z,7.13
2022-10-31T14:56:27.848Z,7.00
2022-10-31T14:58:57.788Z,9.88
2022-10-31T15:01:29.673Z,7.50
2022-10-31T15:04:22.434Z,7.78
2022-10-31T15:06:55.059Z,8.38
2022-10-31T15:09:32.587Z,7.80
2022-10-31T15:12:21.707Z,7.93
2022-10-31T15:14:48.272Z,8.50
2022-10-31T15:17:15.014Z,7.88
2022-10-31T15:19:43.311Z,8.13
2022-10-31T15:22:17.297Z,7.70
2022-10-31T15:24:46.867Z,7.15
2022-10-31T15:27:16.646Z,8.60
2022-10-31T15:29:54.932Z,10.82
2022-10-31T15:32:29.466Z,10.68
2022-10-31T15:34:58.124Z,9.90
2022-10-31T15:37:26.791Z,10.63
2022-10-31T15:39:53.522Z,9.02
2022-10-31T15:42:22.970Z,9.50
2022-10-31T15:44:56.775Z,8.98
2022-10-31T15:47:25.465Z,8.30
2022-10-31T15:49:55.226Z,9.40
2022-10-31T15:52:33.068Z,9.68
2022-10-31T15:55:02.877Z,9.57
2022-10-31T15:57:29.930Z,12.63
2022-10-31T15:59:56.740Z,13.45
2022-10-31T16:02:28.282Z,15.45
2022-10-31T16:05:02.425Z,13.13
2022-10-31T16:07:30.439Z,12.60
2022-10-31T16:10:01.798Z,13.80
2022-10-31T16:12:43.704Z,14.98
2022-10-31T16:15:18.600Z,14.73
2022-10-31T16:17:48.137Z,16.00
2022-10-31T16:20:26.364Z,14.52
2022-10-31T16:22:54.721Z,14.07
2022-10-31T16:25:25.170Z,13.63
2022-10-31T16:27:54.790Z,12.82
2022-10-31T16:30:47.878Z,12.27
2022-10-31T16:33:36.792Z,12.20
2022-10-31T16:36:36.497Z,10.43
2022-10-31T16:39:04.134Z,9.40
2022-10-31T16:41:30.947Z,10.50
2022-10-31T16:43:57.583Z,10.30
2022-10-31T16:46:27.090Z,10.48
2022-10-31T16:48:54.917Z,10.60
2022-10-31T16:51:21.431Z,10.43
2022-10-31T16:53:48.035Z,10.50
2022-10-31T16:56:24.512Z,9.45
2022-10-31T16:58:51.118Z,9.52
2022-10-31T17:01:17.822Z,9.60
2022-10-31T17:03:44.476Z,10.13
2022-10-31T17:06:14.333Z,10.98
2022-10-31T17:08:43.209Z,10.27
2022-10-31T17:11:22.152Z,13.85
2022-10-31T17:13:51.658Z,12.88
2022-10-31T17:16:18.238Z,11.10
2022-10-31T17:18:46.149Z,10.70
2022-10-31T17:21:19.043Z,10.35
2022-10-31T17:23:45.631Z,10.30
2022-10-31T17:26:12.178Z,9.93
2022-10-31T17:28:38.739Z,10.65
2022-10-31T17:31:20.263Z,11.80
2022-10-31T17:33:46.915Z,12.07
2022-10-31T17:36:13.505Z,13.00
2022-10-31T17:38:40.025Z,12.45
2022-10-31T17:41:11.269Z,12.75
2022-10-31T17:43:38.437Z,12.55
2022-10-31T17:46:05.519Z,11.98
2022-10-31T17:48:34.341Z,11.98
2022-10-31T17:51:03.185Z,11.95
2022-10-31T17:53:34.609Z,11.45
2022-10-31T17:56:06.691Z,11.43
2022-10-31T17:58:35.540Z,12.45
2022-10-31T18:01:12.880Z,12.60
2022-10-31T18:03:40.059Z,12.65
2022-10-31T18:06:07.276Z,12.13
2022-10-31T18:08:36.002Z,12.10
2022-10-31T18:11:10.968Z,15.32
2022-10-31T18:13:38.282Z,30.08
2022-10-31T18:16:14.458Z,38.90
2022-10-31T18:18:41.651Z,26.38
2022-10-31T18:21:11.582Z,30.40
2022-10-31T18:23:38.172Z,42.78
2022-10-31T18:26:04.988Z,35.28
2022-10-31T18:28:31.562Z,27.95
2022-10-31T18:31:01.287Z,26.33
2022-10-31T18:33:30.686Z,24.15
2022-10-31T18:35:57.303Z,21.85
2022-10-31T18:38:23.866Z,21.88
2022-10-31T18:40:53.367Z,19.17
2022-10-31T18:43:20.041Z,17.75
2022-10-31T18:45:48.659Z,17.40
2022-10-31T18:48:17.454Z,17.05
2022-10-31T18:50:46.892Z,17.40
2022-10-31T18:53:13.489Z,22.90
2022-10-31T18:55:44.150Z,27.35
2022-10-31T18:58:15.799Z,18.05
2022-10-31T19:00:45.823Z,22.10
2022-10-31T19:03:15.110Z,23.65
2022-10-31T19:05:44.014Z,24.75
2022-10-31T19:08:13.478Z,20.95
2022-10-31T19:10:40.677Z,26.20
2022-10-31T19:13:07.670Z,22.45
2022-10-31T19:15:35.586Z,28.95
2022-10-31T19:18:04.870Z,29.88
2022-10-31T19:20:31.945Z,41.13
2022-10-31T19:23:01.025Z,47.92
2022-10-31T19:25:27.883Z,42.08
2022-10-31T19:27:54.409Z,36.25
2022-10-31T19:30:21.621Z,24.92
2022-10-31T19:32:48.233Z,29.55
2022-10-31T19:35:15.201Z,29.42
2022-10-31T19:37:42.425Z,22.27
2022-10-31T19:40:10.914Z,24.77
2022-10-31T19:42:37.585Z,22.70
2022-10-31T19:45:05.032Z,21.08
2022-10-31T19:47:31.688Z,20.88
2022-10-31T19:49:58.363Z,19.58
2022-10-31T19:52:24.985Z,18.83
2022-10-31T19:54:52.080Z,18.33
2022-10-31T19:57:23.187Z,18.88
2022-10-31T19:59:57.300Z,17.20
2022-10-31T20:02:23.838Z,16.48
2022-10-31T20:04:50.341Z,16.80
2022-10-31T20:07:16.940Z,17.17
2022-10-31T20:09:46.063Z,17.67
2022-10-31T20:12:12.666Z,19.27
2022-10-31T20:14:39.184Z,18.27
2022-10-31T20:17:06.039Z,18.77
2022-10-31T20:19:32.798Z,19.83
2022-10-31T20:21:59.657Z,20.67
2022-10-31T20:24:26.217Z,19.90
2022-10-31T20:26:52.923Z,19.58
2022-10-31T20:29:20.068Z,20.33
2022-10-31T20:31:47.411Z,21.80
2022-10-31T20:34:17.219Z,19.73
2022-10-31T20:36:43.806Z,19.42
2022-10-31T20:39:10.499Z,20.85
2022-10-31T20:41:39.083Z,19.45
2022-10-31T20:44:06.396Z,19.70
2022-10-31T20:46:33.119Z,19.15
2022-10-31T20:49:01.951Z,18.13
2022-10-31T20:51:29.097Z,18.42
2022-10-31T20:53:57.384Z,18.25
2022-10-31T20:56:26.021Z,18.23
2022-10-31T20:58:56.814Z,18.50
2022-10-31T21:01:27.030Z,17.48
2022-10-31T21:03:53.789Z,16.00
2022-10-31T21:06:23.267Z,18.15
2022-10-31T21:08:50.919Z,17.08
2022-10-31T21:11:19.769Z,21.10
2022-10-31T21:13:47.735Z,20.10
2022-10-31T21:16:20.036Z,20.40
2022-10-31T21:18:47.672Z,21.08
2022-10-31T21:21:27.570Z,20.30
2022-10-31T21:24:01.716Z,20.25
2022-10-31T21:26:30.997Z,20.23
2022-10-31T21:28:58.632Z,20.33
2022-10-31T21:31:28.386Z,18.10
2022-10-31T21:33:55.876Z,16.80
2022-10-31T21:36:22.852Z,17.75
2022-10-31T21:38:51.373Z,19.83
2022-10-31T21:41:19.517Z,19.83
2022-10-31T21:43:48.262Z,19.33
2022-10-31T21:46:20.128Z,23.13
2022-10-31T21:48:47.186Z,26.02
2022-10-31T21:51:16.377Z,23.00
2022-10-31T21:54:01.397Z,22.67
2022-10-31T21:56:28.490Z,22.63
2022-10-31T21:58:55.753Z,22.60
2022-10-31T22:01:24.236Z,20.85
2022-10-31T22:03:51.213Z,21.70
2022-10-31T22:06:18.229Z,20.00
2022-10-31T22:08:47.046Z,19.92
2022-10-31T22:11:16.653Z,18.27
2022-10-31T22:13:45.126Z,17.58
2022-10-31T22:16:23.005Z,18.27
2022-10-31T22:18:53.945Z,17.50
2022-10-31T22:21:26.437Z,16.85
2022-10-31T22:24:02.048Z,17.48
2022-10-31T22:26:32.370Z,16.58
2022-10-31T22:29:02.496Z,15.85
2022-10-31T22:31:30.984Z,16.92
2022-10-31T22:33:57.846Z,17.15
2022-10-31T22:36:29.839Z,17.23
2022-10-31T22:38:57.244Z,16.63
2022-10-31T22:41:26.614Z,17.20
2022-10-31T22:43:54.660Z,17.90
2022-10-31T22:46:26.406Z,18.40
2022-10-31T22:48:55.957Z,19.70
2022-10-31T22:51:27.930Z,19.27
2022-10-31T22:53:57.909Z,17.27
2022-10-31T22:56:30.281Z,16.48
2022-10-31T22:58:57.656Z,15.65
2022-10-31T23:01:29.778Z,15.43
2022-10-31T23:03:56.635Z,13.80
2022-10-31T23:06:26.527Z,14.38
2022-10-31T23:08:53.649Z,13.80
2022-10-31T23:11:25.802Z,14.45
2022-10-31T23:14:10.036Z,15.18
2022-10-31T23:16:46.891Z,16.15
2022-10-31T23:19:25.278Z,16.80
2022-10-31T23:21:54.772Z,16.23
2022-10-31T23:24:44.801Z,17.08
2022-10-31T23:27:17.912Z,16.73
2022-10-31T23:29:44.526Z,16.58
2022-10-31T23:32:22.365Z,15.88
2022-10-31T23:34:51.188Z,15.13
2022-10-31T23:37:19.378Z,14.48
2022-10-31T23:39:46.512Z,15.30
2022-10-31T23:42:13.899Z,15.40
2022-10-31T23:44:40.661Z,14.73
2022-10-31T23:47:07.482Z,16.27
2022-10-31T23:49:34.787Z,14.73
2022-10-31T23:52:02.064Z,15.68
2022-10-31T23:54:28.692Z,13.45
2022-10-31T23:56:55.954Z,13.93
2022-10-31T23:59:24.731Z,14.25
